Terminal Aerodrome Forecast
Issued by NWS Sterling, VA

Current Version | Previous Version | Text Only | Print | Product List | Glossary Off
Versions: 1 2 3 4 5 6 7 8 9 10 11 12 13 14 15 16 17 18 19 20 21

000
FTUS41 KLWX 010849 AAA
TAFDCA
TAF AMD
KDCA 010849Z 0109/0206 06008KT 3SM -RADZ BR OVC006
     FM011500 08006KT P6SM BKN008
     FM011900 12005KT P6SM BKN015
     FM012100 13005KT P6SM BKN025
     FM020000 13005KT P6SM BKN035
     FM020200 17004KT P6SM SCT040=

USA.gov is the U.S. government's official web portal to all federal, state and local government web resources and services.